Time;durP1;ratioP1;P1;durP2;ratioP2;P2;SDS_P1;SDS_P2;PMS_P1;PMS_P2;Temp;Humidity;BMP_temperature;BMP_pressure;BME280_temperature;BME280_humidity;BME280_pressure;Samples;Min_cycle;Max_cycle;Signal;HPM_P1;HPM_P2
2023/02/09 00:00:15;;;;;;;0.65;0.65;;;1.90;99.90;;;;;;5114866;28;20199;-75
2023/02/09 00:02:41;;;;;;;0.68;0.68;;;1.80;99.90;;;;;;5109646;28;20212;-74
2023/02/09 00:05:09;;;;;;;0.90;0.90;;;1.90;99.90;;;;;;5127210;27;20200;-73
2023/02/09 00:07:34;;;;;;;1.17;1.05;;;1.80;99.90;;;;;;5094003;28;20204;-73
2023/02/09 00:10:00;;;;;;;1.02;1.02;;;1.90;99.90;;;;;;5094355;28;20556;-76
2023/02/09 00:15:14;;;;;;;1.75;1.10;;;1.80;99.90;;;;;;5094540;28;20199;-74
2023/02/09 00:17:39;;;;;;;1.08;1.08;;;1.80;99.90;;;;;;5094003;28;20599;-74
2023/02/09 00:20:06;;;;;;;0.70;0.70;;;1.80;99.90;;;;;;5094072;28;20200;-74
2023/02/09 00:22:33;;;;;;;1.38;1.30;;;1.80;99.90;;;;;;5093874;28;20196;-74
2023/02/09 00:24:58;;;;;;;0.70;0.70;;;1.80;99.90;;;;;;5092674;28;20192;-73
2023/02/09 00:27:25;;;;;;;0.60;0.60;;;1.80;99.90;;;;;;5092323;28;20754;-74
2023/02/09 00:29:50;;;;;;;0.80;0.80;;;1.80;99.90;;;;;;5126687;27;20189;-74
2023/02/09 00:32:17;;;;;;;1.50;1.25;;;1.80;99.90;;;;;;5093925;28;20275;-75
2023/02/09 00:34:43;;;;;;;1.58;1.48;;;1.80;99.90;;;;;;5092411;28;20196;-74
2023/02/09 00:37:08;;;;;;;0.60;0.60;;;1.80;99.90;;;;;;5092397;28;20192;-75
2023/02/09 00:39:34;;;;;;;0.52;0.52;;;1.80;99.90;;;;;;5092542;28;20231;-74
2023/02/09 00:42:06;;;;;;;0.80;0.80;;;1.80;99.90;;;;;;5129046;27;20277;-74
2023/02/09 00:44:38;;;;;;;0.65;0.65;;;1.80;99.90;;;;;;5113768;28;20281;-74
2023/02/09 00:47:06;;;;;;;1.00;1.00;;;1.80;99.90;;;;;;5116912;27;20207;-74
2023/02/09 00:49:31;;;;;;;1.13;1.13;;;1.80;99.90;;;;;;5134184;27;20190;-74
2023/02/09 00:51:57;;;;;;;0.75;0.75;;;1.80;99.90;;;;;;5115656;27;20191;-75
2023/02/09 00:54:23;;;;;;;1.20;1.10;;;1.80;99.90;;;;;;5134192;27;20239;-75
2023/02/09 00:56:49;;;;;;;1.27;1.17;;;1.80;99.90;;;;;;5115917;27;20198;-76
2023/02/09 00:59:15;;;;;;;1.00;1.00;;;1.70;99.90;;;;;;5115778;27;20214;-75
2023/02/09 01:01:41;;;;;;;0.63;0.63;;;1.70;99.90;;;;;;5134052;27;20205;-74
2023/02/09 01:04:07;;;;;;;0.70;0.70;;;1.70;99.90;;;;;;5115673;27;20199;-75
2023/02/09 01:06:33;;;;;;;0.70;0.70;;;1.70;99.90;;;;;;5133966;27;20211;-75
2023/02/09 01:08:59;;;;;;;0.77;0.77;;;1.80;99.90;;;;;;5134098;27;20551;-75
2023/02/09 01:11:29;;;;;;;0.70;0.70;;;1.70;99.90;;;;;;5133927;27;20194;-75
2023/02/09 01:13:59;;;;;;;0.68;0.68;;;1.70;99.90;;;;;;5134158;27;20183;-74
2023/02/09 01:16:31;;;;;;;0.70;0.70;;;1.70;99.90;;;;;;5133810;27;20721;-75
2023/02/09 01:19:06;;;;;;;0.60;0.60;;;1.70;99.90;;;;;;5134023;27;20570;-74
2023/02/09 01:21:32;;;;;;;3.35;2.35;;;1.70;99.90;;;;;;5115103;27;20205;-75
2023/02/09 01:23:58;;;;;;;0.70;0.70;;;1.60;99.90;;;;;;5133861;27;20195;-75
2023/02/09 01:26:24;;;;;;;0.80;0.80;;;1.60;99.90;;;;;;5133437;27;20198;-75
2023/02/09 01:28:52;;;;;;;0.60;0.60;;;1.60;99.90;;;;;;5133832;27;20213;-74
2023/02/09 01:31:39;;;;;;;0.60;0.60;;;1.60;99.90;;;;;;5115513;27;20195;-75
2023/02/09 01:34:05;;;;;;;1.17;1.17;;;1.60;99.90;;;;;;5133398;27;20198;-75
2023/02/09 01:36:31;;;;;;;0.70;0.70;;;1.60;99.90;;;;;;5115185;27;20199;-75
2023/02/09 01:38:59;;;;;;;0.85;0.85;;;1.50;99.90;;;;;;5133764;28;20684;-75
2023/02/09 01:41:28;;;;;;;0.60;0.60;;;1.50;99.90;;;;;;5115446;28;20194;-75
2023/02/09 01:43:54;;;;;;;0.90;0.90;;;1.50;99.90;;;;;;5133448;28;20230;-75
2023/02/09 01:46:23;;;;;;;0.93;0.93;;;1.50;99.90;;;;;;5133152;27;20199;-76
2023/02/09 01:48:52;;;;;;;1.30;1.23;;;1.50;99.90;;;;;;5133643;28;20554;-72
2023/02/09 01:51:19;;;;;;;0.60;0.60;;;1.50;99.90;;;;;;5114923;28;20195;-75
2023/02/09 01:53:45;;;;;;;0.52;0.52;;;1.40;99.90;;;;;;5133256;28;20198;-75
2023/02/09 01:56:20;;;;;;;0.70;0.70;;;1.40;99.90;;;;;;5133568;28;20226;-74
2023/02/09 01:58:46;;;;;;;0.98;0.98;;;1.40;99.90;;;;;;5133499;28;20209;-75
2023/02/09 02:01:14;;;;;;;1.95;1.02;;;1.40;99.90;;;;;;5115404;28;20203;-76
2023/02/09 02:03:40;;;;;;;0.82;0.82;;;1.40;99.90;;;;;;5134641;22;20179;-74
2023/02/09 02:06:16;;;;;;;0.93;0.93;;;1.40;99.90;;;;;;5043105;28;20302;-74
2023/02/09 02:09:01;;;;;;;0.70;0.70;;;1.40;99.90;;;;;;5052786;28;20204;-74
2023/02/09 02:11:28;;;;;;;0.68;0.68;;;1.40;99.90;;;;;;5052826;28;20189;-74
2023/02/09 02:13:57;;;;;;;1.23;0.77;;;1.40;99.90;;;;;;5034718;28;20197;-74
2023/02/09 02:16:57;;;;;;;0.60;0.60;;;1.40;99.90;;;;;;5052628;28;20189;-73
2023/02/09 02:19:51;;;;;;;0.60;0.60;;;1.30;99.90;;;;;;5034611;28;20208;-74
2023/02/09 02:22:37;;;;;;;0.63;0.63;;;1.30;99.90;;;;;;5049984;28;20193;-74
2023/02/09 02:25:33;;;;;;;1.70;1.60;;;1.30;99.90;;;;;;5072688;28;20681;-73
2023/02/09 02:28:20;;;;;;;0.55;0.55;;;1.30;99.90;;;;;;5072831;28;20573;-74
2023/02/09 02:31:04;;;;;;;0.80;0.80;;;1.30;99.90;;;;;;5072982;28;20540;-73
2023/02/09 02:33:51;;;;;;;0.57;0.57;;;1.30;99.90;;;;;;5072782;28;20658;-74
2023/02/09 02:36:25;;;;;;;0.60;0.60;;;1.30;99.90;;;;;;5072348;28;20200;-73
2023/02/09 02:38:58;;;;;;;0.50;0.50;;;1.30;99.90;;;;;;5072329;28;20196;-74
2023/02/09 02:44:30;;;;;;;0.70;0.70;;;1.30;99.90;;;;;;5072096;28;20207;-74
2023/02/09 02:47:01;;;;;;;2.35;2.15;;;1.30;99.90;;;;;;5075171;28;20258;-74
2023/02/09 02:49:56;;;;;;;0.88;0.85;;;1.30;99.90;;;;;;5075891;28;20678;-74
2023/02/09 02:52:22;;;;;;;0.50;0.50;;;1.30;99.90;;;;;;5055981;28;20201;-74
2023/02/09 02:54:56;;;;;;;0.63;0.63;;;1.30;99.90;;;;;;5038231;28;20613;-74
2023/02/09 02:57:27;;;;;;;0.65;0.65;;;1.40;99.90;;;;;;5056008;28;20193;-74
2023/02/09 03:00:19;;;;;;;1.38;1.27;;;1.40;99.90;;;;;;5056015;28;20197;-74
2023/02/09 03:03:08;;;;;;;0.60;0.60;;;1.50;99.90;;;;;;5073536;28;20193;-74
2023/02/09 03:05:37;;;;;;;0.90;0.90;;;1.50;99.90;;;;;;5075777;28;20683;-74
2023/02/09 03:08:03;;;;;;;2.13;1.00;;;1.60;99.90;;;;;;5076017;28;20217;-74
2023/02/09 03:10:38;;;;;;;0.90;0.90;;;1.60;99.90;;;;;;5075633;28;20189;-74
2023/02/09 03:13:13;;;;;;;0.70;0.70;;;1.60;99.90;;;;;;5057916;28;20192;-73
2023/02/09 03:15:53;;;;;;;0.68;0.68;;;1.60;99.90;;;;;;5075590;28;20713;-74
2023/02/09 03:18:54;;;;;;;0.57;0.57;;;1.60;99.90;;;;;;5057670;28;20219;-74
2023/02/09 03:21:37;;;;;;;0.60;0.60;;;1.70;99.90;;;;;;5075665;28;20169;-74
2023/02/09 03:24:33;;;;;;;0.57;0.57;;;1.70;99.90;;;;;;5075384;28;20276;-74
2023/02/09 03:27:30;;;;;;;1.25;1.15;;;1.80;99.90;;;;;;5057196;28;20785;-73
2023/02/09 03:29:59;;;;;;;0.60;0.60;;;1.80;99.90;;;;;;5074899;28;20525;-74
2023/02/09 03:32:26;;;;;;;0.60;0.60;;;1.80;99.90;;;;;;5074741;28;20238;-73
2023/02/09 03:34:54;;;;;;;0.50;0.50;;;1.80;99.90;;;;;;5075092;28;20254;-74
2023/02/09 03:37:20;;;;;;;0.60;0.60;;;1.80;99.90;;;;;;5057773;28;20250;-74
2023/02/09 03:39:46;;;;;;;1.48;1.38;;;1.80;99.90;;;;;;5075507;28;20192;-74
2023/02/09 03:42:11;;;;;;;0.88;0.88;;;1.80;99.90;;;;;;5075548;28;20211;-74
2023/02/09 03:44:37;;;;;;;0.60;0.60;;;1.80;99.90;;;;;;5075699;28;20199;-73
2023/02/09 03:47:08;;;;;;;0.60;0.60;;;1.80;99.90;;;;;;5083518;28;20211;-74
2023/02/09 03:49:38;;;;;;;1.13;0.98;;;1.80;99.90;;;;;;5076685;28;20234;-73
2023/02/09 03:52:08;;;;;;;0.55;0.55;;;1.80;99.90;;;;;;5094688;28;20261;-74
2023/02/09 03:54:35;;;;;;;0.55;0.55;;;1.90;99.90;;;;;;5076820;28;20203;-74
2023/02/09 03:57:01;;;;;;;0.50;0.50;;;1.80;99.90;;;;;;5094652;28;20191;-73
2023/02/09 03:59:28;;;;;;;0.55;0.55;;;1.80;99.90;;;;;;5077000;28;20205;-74
2023/02/09 04:01:56;;;;;;;2.35;1.00;;;1.80;99.90;;;;;;5073255;28;20322;-74
2023/02/09 04:04:25;;;;;;;0.60;0.60;;;1.80;99.90;;;;;;5073670;28;20239;-74
2023/02/09 04:06:51;;;;;;;1.30;1.13;;;1.80;99.90;;;;;;5057054;28;20213;-74
2023/02/09 04:09:17;;;;;;;0.70;0.70;;;1.80;99.90;;;;;;5074846;28;20192;-74
2023/02/09 04:11:44;;;;;;;0.90;0.90;;;1.90;99.90;;;;;;5074763;28;20189;-74
2023/02/09 04:14:10;;;;;;;0.77;0.77;;;1.90;99.90;;;;;;5056518;28;20560;-74
2023/02/09 04:16:36;;;;;;;0.60;0.60;;;1.90;99.90;;;;;;5056459;28;20201;-74
2023/02/09 04:19:03;;;;;;;0.60;0.60;;;1.90;99.90;;;;;;5074389;28;20203;-74
2023/02/09 04:21:29;;;;;;;0.60;0.60;;;1.90;99.90;;;;;;5074184;28;20193;-74
2023/02/09 04:23:55;;;;;;;0.50;0.50;;;2.00;99.90;;;;;;5056258;28;20204;-74
2023/02/09 04:26:27;;;;;;;1.08;1.08;;;2.00;99.90;;;;;;5074216;28;20211;-73
2023/02/09 04:28:55;;;;;;;0.68;0.68;;;2.00;99.90;;;;;;5074305;28;20196;-74
2023/02/09 04:31:21;;;;;;;0.50;0.50;;;2.10;99.90;;;;;;5073968;28;20193;-74
2023/02/09 04:33:47;;;;;;;0.70;0.70;;;2.10;99.90;;;;;;5074255;28;20242;-74
2023/02/09 04:36:16;;;;;;;0.60;0.60;;;2.10;99.90;;;;;;5073427;28;20267;-75
2023/02/09 04:38:42;;;;;;;0.65;0.65;;;2.10;99.90;;;;;;5074296;28;20245;-74
2023/02/09 04:41:07;;;;;;;0.70;0.70;;;2.10;99.90;;;;;;5073917;28;20197;-73
2023/02/09 04:43:33;;;;;;;0.93;0.93;;;2.10;99.90;;;;;;5083604;28;20686;-73
2023/02/09 04:46:00;;;;;;;0.50;0.50;;;2.10;99.90;;;;;;5094200;28;20196;-74
2023/02/09 04:48:27;;;;;;;0.50;0.50;;;2.10;99.90;;;;;;5093942;28;20192;-74
2023/02/09 04:50:53;;;;;;;0.60;0.60;;;2.10;99.90;;;;;;5093955;28;20204;-73
2023/02/09 04:53:20;;;;;;;0.65;0.65;;;2.10;99.90;;;;;;5094089;28;20188;-73
2023/02/09 04:55:46;;;;;;;0.70;0.70;;;2.10;99.90;;;;;;5093996;28;20208;-73
2023/02/09 05:01:23;;;;;;;0.50;0.50;;;2.10;99.90;;;;;;5093026;28;20199;-73
2023/02/09 05:03:54;;;;;;;0.60;0.60;;;2.10;99.90;;;;;;5055118;28;20215;-73
2023/02/09 05:06:21;;;;;;;0.95;0.95;;;2.20;99.90;;;;;;5055527;28;20224;-73
2023/02/09 05:08:47;;;;;;;0.60;0.60;;;2.20;99.90;;;;;;5069138;28;20209;-74
2023/02/09 05:11:13;;;;;;;0.52;0.52;;;2.20;99.90;;;;;;5073388;28;20280;-74
2023/02/09 05:13:39;;;;;;;0.50;0.50;;;2.20;99.90;;;;;;5055520;28;20299;-74
2023/02/09 05:16:07;;;;;;;0.63;0.63;;;2.20;99.90;;;;;;5073577;28;20228;-73
2023/02/09 05:18:33;;;;;;;0.60;0.60;;;2.20;99.90;;;;;;5073299;28;20292;-74
2023/02/09 05:20:59;;;;;;;0.88;0.88;;;2.20;99.90;;;;;;5073455;28;20272;-74
2023/02/09 05:23:27;;;;;;;0.70;0.70;;;2.30;99.90;;;;;;5073255;28;20256;-74
2023/02/09 05:25:54;;;;;;;0.50;0.50;;;2.30;99.90;;;;;;5073586;28;20691;-74
2023/02/09 05:28:24;;;;;;;0.60;0.60;;;2.30;99.90;;;;;;5054982;28;21244;-74
2023/02/09 05:30:52;;;;;;;0.60;0.60;;;2.30;99.90;;;;;;5054238;28;20203;-74
2023/02/09 05:33:22;;;;;;;0.50;0.50;;;2.30;99.90;;;;;;5072479;28;20197;-74
2023/02/09 05:35:50;;;;;;;1.15;1.13;;;2.30;99.90;;;;;;5072754;28;20223;-74
2023/02/09 05:38:15;;;;;;;0.80;0.80;;;2.30;99.90;;;;;;5072694;28;20197;-75
2023/02/09 05:40:41;;;;;;;0.57;0.57;;;2.30;99.90;;;;;;5071811;28;20208;-74
2023/02/09 05:43:07;;;;;;;0.57;0.57;;;2.30;99.90;;;;;;5093043;28;20267;-74
2023/02/09 05:45:32;;;;;;;1.42;1.33;;;2.40;99.90;;;;;;5075101;28;20206;-74
2023/02/09 05:47:58;;;;;;;0.80;0.80;;;2.40;99.90;;;;;;5093032;28;20257;-74
2023/02/09 05:50:27;;;;;;;0.57;0.57;;;2.40;99.90;;;;;;5086132;28;20204;-74
2023/02/09 05:52:53;;;;;;;0.60;0.60;;;2.40;99.90;;;;;;5053475;28;20194;-74
2023/02/09 05:55:21;;;;;;;0.80;0.80;;;2.40;99.90;;;;;;5035272;28;20201;-74
2023/02/09 05:57:47;;;;;;;0.90;0.90;;;2.30;99.90;;;;;;5034384;28;20766;-75
2023/02/09 06:00:16;;;;;;;0.50;0.50;;;2.30;99.90;;;;;;5053098;28;20273;-74
2023/02/09 06:02:41;;;;;;;0.75;0.75;;;2.40;99.90;;;;;;5065944;28;20730;-75
2023/02/09 06:05:07;;;;;;;0.90;0.90;;;2.30;99.90;;;;;;5051454;28;20320;-74
2023/02/09 06:07:33;;;;;;;0.50;0.50;;;2.40;99.90;;;;;;5051519;28;20217;-74
2023/02/09 06:09:59;;;;;;;0.57;0.57;;;2.40;99.90;;;;;;5051801;28;20200;-74
2023/02/09 06:12:25;;;;;;;0.60;0.60;;;2.40;99.90;;;;;;5052477;28;20656;-74
2023/02/09 06:14:50;;;;;;;0.60;0.60;;;2.40;99.90;;;;;;5052585;28;20201;-75
2023/02/09 06:17:16;;;;;;;0.60;0.60;;;2.40;99.90;;;;;;5051703;28;20209;-74
2023/02/09 06:19:45;;;;;;;0.68;0.68;;;2.40;99.90;;;;;;5054116;28;20190;-74
2023/02/09 06:22:14;;;;;;;0.90;0.90;;;2.40;99.90;;;;;;5056624;28;20657;-75
2023/02/09 06:24:39;;;;;;;0.82;0.82;;;2.40;99.90;;;;;;5053719;28;20197;-74
2023/02/09 06:27:05;;;;;;;0.60;0.60;;;2.40;99.90;;;;;;5036410;28;20217;-75
2023/02/09 06:29:31;;;;;;;0.55;0.55;;;2.40;99.90;;;;;;5055378;28;20198;-75
2023/02/09 06:32:02;;;;;;;0.40;0.40;;;2.50;99.90;;;;;;5056718;28;20209;-74
2023/02/09 06:34:28;;;;;;;0.68;0.68;;;2.40;99.90;;;;;;5056151;28;20208;-74
2023/02/09 06:36:54;;;;;;;0.70;0.70;;;2.40;99.90;;;;;;5073329;28;20200;-73
2023/02/09 06:39:20;;;;;;;0.77;0.77;;;2.40;99.90;;;;;;5076388;28;20189;-75
2023/02/09 06:41:45;;;;;;;0.50;0.50;;;2.50;99.90;;;;;;5076377;28;20276;-74
2023/02/09 06:44:12;;;;;;;0.70;0.70;;;2.50;99.90;;;;;;5075021;28;20659;-75
2023/02/09 06:46:38;;;;;;;1.85;1.27;;;2.50;99.90;;;;;;5076047;28;20197;-74
2023/02/09 06:49:06;;;;;;;0.60;0.60;;;2.50;99.90;;;;;;5075997;28;20200;-74
2023/02/09 06:51:35;;;;;;;0.60;0.60;;;2.50;99.90;;;;;;5075988;28;20233;-74
2023/02/09 06:54:04;;;;;;;0.50;0.50;;;2.50;99.90;;;;;;5075628;28;20201;-75
2023/02/09 06:56:32;;;;;;;0.50;0.50;;;2.50;99.90;;;;;;5075388;28;20208;-74
2023/02/09 06:59:01;;;;;;;0.60;0.60;;;2.50;99.90;;;;;;5074663;28;20205;-74
2023/02/09 07:01:31;;;;;;;0.55;0.55;;;2.50;99.90;;;;;;5071091;28;20198;-75
2023/02/09 07:03:56;;;;;;;1.50;1.40;;;2.50;99.90;;;;;;5056732;28;20201;-74
2023/02/09 07:06:31;;;;;;;0.52;0.52;;;2.50;99.90;;;;;;5075502;28;20211;-76
2023/02/09 07:08:56;;;;;;;1.63;1.55;;;2.40;99.90;;;;;;5057975;28;20199;-75
2023/02/09 07:11:22;;;;;;;0.73;0.73;;;2.50;99.90;;;;;;5075824;28;20192;-74
2023/02/09 07:14:01;;;;;;;0.50;0.50;;;2.40;99.90;;;;;;5075713;28;20189;-76
2023/02/09 07:16:27;;;;;;;0.50;0.50;;;2.40;99.90;;;;;;5056162;28;20674;-74
2023/02/09 07:18:58;;;;;;;0.70;0.70;;;2.40;99.90;;;;;;5075734;28;20276;-76
2023/02/09 07:21:58;;;;;;;0.60;0.60;;;2.40;99.90;;;;;;5057063;28;20562;-74
2023/02/09 07:25:01;;;;;;;0.60;0.60;;;2.50;99.90;;;;;;5041632;28;20288;-73
2023/02/09 07:27:29;;;;;;;0.52;0.52;;;2.50;99.90;;;;;;5073263;28;20220;-74
2023/02/09 07:30:01;;;;;;;0.77;0.77;;;2.50;99.90;;;;;;5057270;28;20300;-74
2023/02/09 07:32:41;;;;;;;0.60;0.60;;;2.40;99.90;;;;;;5064802;28;20213;-75
2023/02/09 07:35:07;;;;;;;0.70;0.70;;;2.40;99.90;;;;;;5095268;28;20184;-75
2023/02/09 07:37:39;;;;;;;1.98;1.77;;;2.20;99.90;;;;;;5095669;28;20196;-76
2023/02/09 07:40:05;;;;;;;0.70;0.70;;;2.20;99.90;;;;;;5095755;28;20192;-76
2023/02/09 07:42:31;;;;;;;1.45;1.35;;;2.10;99.90;;;;;;5095108;28;20581;-76
2023/02/09 07:44:59;;;;;;;0.60;0.60;;;2.10;99.90;;;;;;5095255;28;20271;-75
2023/02/09 07:47:27;;;;;;;0.52;0.52;;;2.10;99.90;;;;;;5076747;28;20227;-75
2023/02/09 07:49:55;;;;;;;0.68;0.68;;;2.10;99.90;;;;;;5095629;28;20650;-76
2023/02/09 07:52:21;;;;;;;0.80;0.80;;;2.10;99.90;;;;;;5095211;28;20188;-76
2023/02/09 07:55:02;;;;;;;;;;;;;;;;;;;;;
2023/02/09 07:57:29;;;;;;;0.57;0.57;;;2.10;99.90;;;;;;5095128;28;20654;-76
2023/02/09 08:00:18;;;;;;;0.70;0.70;;;2.10;99.90;;;;;;5078879;28;20203;-75
2023/02/09 08:02:59;;;;;;;0.60;0.60;;;2.10;99.90;;;;;;5041574;28;20209;-75
2023/02/09 08:08:53;;;;;;;3.22;1.67;;;2.10;99.90;;;;;;5034634;28;20569;-75
2023/02/09 08:11:46;;;;;;;0.57;0.57;;;2.10;99.90;;;;;;5033625;28;20198;-75
2023/02/09 08:14:55;;;;;;;0.70;0.70;;;2.10;99.90;;;;;;5032742;28;20206;-75
2023/02/09 08:17:26;;;;;;;1.55;1.45;;;2.20;99.90;;;;;;5024182;28;20293;-74
2023/02/09 08:20:14;;;;;;;0.65;0.65;;;2.20;99.90;;;;;;5032958;28;20194;-74
2023/02/09 08:22:49;;;;;;;0.50;0.50;;;2.20;99.90;;;;;;5049561;28;20225;-75
2023/02/09 08:25:18;;;;;;;0.55;0.55;;;2.20;99.90;;;;;;5033413;28;20197;-74
2023/02/09 08:27:45;;;;;;;0.70;0.70;;;2.20;99.90;;;;;;5032553;28;20590;-75
2023/02/09 08:30:13;;;;;;;0.88;0.88;;;2.30;99.90;;;;;;5033044;28;20190;-75
2023/02/09 08:33:09;;;;;;;0.60;0.60;;;2.30;99.90;;;;;;5059225;28;20201;-74
2023/02/09 08:35:35;;;;;;;0.57;0.57;;;2.40;99.90;;;;;;5073211;28;20203;-75
2023/02/09 08:38:02;;;;;;;0.50;0.50;;;2.40;99.90;;;;;;5074170;28;20196;-74
2023/02/09 08:40:43;;;;;;;0.52;0.52;;;2.50;99.90;;;;;;5057012;28;20209;-75
2023/02/09 08:43:15;;;;;;;0.57;0.57;;;2.60;99.90;;;;;;5051528;28;20271;-74
2023/02/09 08:45:41;;;;;;;0.60;0.60;;;2.60;99.90;;;;;;5052731;28;20202;-75
2023/02/09 08:48:11;;;;;;;0.95;0.88;;;2.70;99.90;;;;;;5053765;28;20278;-75
2023/02/09 08:50:48;;;;;;;0.50;0.50;;;2.70;99.90;;;;;;5053770;28;20259;-74
2023/02/09 08:53:25;;;;;;;0.60;0.60;;;2.80;99.90;;;;;;5052908;28;20288;-74
2023/02/09 08:55:51;;;;;;;1.15;1.10;;;2.90;99.90;;;;;;5052517;28;20243;-73
2023/02/09 08:58:17;;;;;;;0.60;0.60;;;3.00;99.90;;;;;;5052616;28;20197;-74
2023/02/09 09:00:46;;;;;;;0.60;0.60;;;3.10;99.90;;;;;;5052034;28;20239;-74
2023/02/09 09:03:12;;;;;;;1.35;1.25;;;3.10;99.90;;;;;;5048861;28;20913;-73
2023/02/09 09:05:37;;;;;;;0.60;0.60;;;3.20;99.90;;;;;;5048763;28;20258;-75
2023/02/09 09:08:11;;;;;;;0.60;0.60;;;3.30;99.90;;;;;;5053502;28;20284;-75
2023/02/09 09:14:25;;;;;;;0.60;0.60;;;3.40;99.90;;;;;;5049190;28;20534;-74
2023/02/09 09:17:25;;;;;;;1.13;1.08;;;3.50;99.90;;;;;;5072673;28;20193;-75
2023/02/09 09:19:54;;;;;;;1.60;1.50;;;3.50;99.90;;;;;;5072486;28;20566;-74
2023/02/09 09:22:39;;;;;;;1.10;1.10;;;3.60;99.90;;;;;;5054702;28;20575;-74
2023/02/09 09:25:06;;;;;;;0.77;0.77;;;3.70;99.90;;;;;;5054925;28;20413;-75
2023/02/09 09:27:38;;;;;;;1.48;1.23;;;3.70;99.90;;;;;;5073039;28;20675;-75
2023/02/09 09:30:05;;;;;;;0.50;0.50;;;3.80;99.90;;;;;;5054385;28;20204;-75
2023/02/09 09:35:37;;;;;;;0.80;0.80;;;3.90;99.90;;;;;;5086410;28;20266;-75
2023/02/09 09:38:06;;;;;;;0.60;0.60;;;3.90;99.90;;;;;;5072744;28;20686;-75
2023/02/09 09:40:39;;;;;;;3.05;2.15;;;3.90;99.90;;;;;;5054828;28;20247;-76
2023/02/09 09:43:31;;;;;;;0.60;0.60;;;4.00;99.90;;;;;;5055018;28;20197;-76
2023/02/09 09:46:05;;;;;;;0.60;0.60;;;4.00;99.90;;;;;;5055434;28;20220;-76
2023/02/09 09:48:57;;;;;;;0.60;0.60;;;4.10;99.90;;;;;;5073007;28;20200;-76
2023/02/09 09:51:40;;;;;;;0.93;0.93;;;4.10;99.90;;;;;;5056971;28;20209;-75
2023/02/09 09:54:20;;;;;;;0.60;0.60;;;4.20;99.90;;;;;;5055300;28;20192;-76
2023/02/09 09:56:59;;;;;;;1.10;1.02;;;4.20;99.90;;;;;;5057473;28;20201;-76
2023/02/09 09:59:38;;;;;;;0.65;0.65;;;4.20;99.90;;;;;;5039188;28;20197;-76
2023/02/09 10:02:38;;;;;;;2.05;1.80;;;4.20;99.90;;;;;;5044869;28;20278;-75
2023/02/09 10:05:13;;;;;;;0.50;0.50;;;4.20;99.90;;;;;;5053623;28;20236;-76
2023/02/09 10:08:10;;;;;;;0.60;0.60;;;4.20;99.90;;;;;;5055149;28;20599;-75
2023/02/09 10:11:03;;;;;;;0.60;0.60;;;4.20;99.90;;;;;;5056833;28;20580;-76
2023/02/09 10:13:50;;;;;;;0.57;0.57;;;4.20;99.90;;;;;;5056311;28;20280;-77
2023/02/09 10:16:29;;;;;;;17.65;1.58;;;4.20;99.90;;;;;;5055043;28;20288;-76
2023/02/09 10:19:16;;;;;;;0.52;0.52;;;4.20;99.90;;;;;;5055034;28;20288;-76
2023/02/09 10:21:44;;;;;;;0.60;0.60;;;4.20;99.90;;;;;;5055212;28;20197;-76
2023/02/09 10:24:19;;;;;;;0.65;0.65;;;4.20;99.90;;;;;;5055259;28;20208;-76
2023/02/09 10:27:16;;;;;;;;;;;;;;;;;;;;;
2023/02/09 10:29:48;;;;;;;0.60;0.60;;;4.20;99.90;;;;;;5075748;28;20203;-75
2023/02/09 10:32:26;;;;;;;0.50;0.50;;;4.30;99.90;;;;;;5075613;28;20559;-75
2023/02/09 10:34:56;;;;;;;0.60;0.60;;;4.40;99.90;;;;;;5074993;28;20597;-74
2023/02/09 10:37:31;;;;;;;0.70;0.70;;;4.80;99.90;;;;;;5075104;28;20189;-76
2023/02/09 10:40:38;;;;;;;0.60;0.60;;;5.20;99.90;;;;;;5075099;28;20270;-75
2023/02/09 10:43:37;;;;;;;0.70;0.70;;;5.80;99.90;;;;;;5073131;28;20208;-75
2023/02/09 10:46:19;;;;;;;0.50;0.50;;;6.30;99.90;;;;;;5055246;28;20236;-75
2023/02/09 10:48:46;;;;;;;0.55;0.55;;;6.60;99.90;;;;;;5075042;28;20200;-76
2023/02/09 10:51:27;;;;;;;0.65;0.65;;;6.60;99.90;;;;;;5068171;28;20209;-74
2023/02/09 10:54:20;;;;;;;0.88;0.88;;;6.70;99.90;;;;;;5056151;28;20189;-75
2023/02/09 10:59:49;;;;;;;0.68;0.68;;;6.80;99.90;;;;;;5055538;28;20204;-76
2023/02/09 11:02:49;;;;;;;0.70;0.70;;;7.10;99.90;;;;;;5051116;28;20194;-75
2023/02/09 11:06:07;;;;;;;0.70;0.70;;;7.40;99.90;;;;;;5028920;28;20642;-75
2023/02/09 11:08:56;;;;;;;0.70;0.70;;;7.40;99.90;;;;;;5048606;28;20217;-75
2023/02/09 11:11:55;;;;;;;;;;;;;;;;;;;;;
2023/02/09 11:14:22;;;;;;;0.63;0.63;;;7.40;99.90;;;;;;5055322;28;20197;-75
2023/02/09 11:17:30;;;;;;;0.70;0.70;;;7.30;99.90;;;;;;5055752;28;20281;-76
2023/02/09 11:20:38;;;;;;;0.60;0.60;;;7.40;99.90;;;;;;5054345;28;20214;-74
2023/02/09 11:23:43;;;;;;;0.60;0.60;;;7.50;99.90;;;;;;5054399;28;20216;-76
2023/02/09 11:26:38;;;;;;;0.60;0.60;;;7.70;99.90;;;;;;5034641;28;20229;-75
2023/02/09 11:29:33;;;;;;;0.65;0.65;;;7.70;99.90;;;;;;5035442;28;20198;-74
2023/02/09 11:32:19;;;;;;;0.60;0.60;;;7.30;99.90;;;;;;5034164;28;20285;-75
2023/02/09 11:35:12;;;;;;;0.60;0.60;;;7.40;99.90;;;;;;5034119;28;20277;-75
2023/02/09 11:37:48;;;;;;;0.55;0.55;;;7.50;99.90;;;;;;5033866;28;20587;-75
2023/02/09 11:40:44;;;;;;;0.60;0.60;;;7.50;99.90;;;;;;5034470;28;20194;-75
2023/02/09 11:43:16;;;;;;;0.70;0.70;;;7.60;99.90;;;;;;5034578;28;20194;-75
2023/02/09 11:45:49;;;;;;;0.77;0.75;;;7.70;99.90;;;;;;5035341;28;20648;-75
2023/02/09 11:48:29;;;;;;;0.60;0.60;;;7.60;99.90;;;;;;5047801;28;20210;-75
2023/02/09 11:51:36;;;;;;;0.60;0.60;;;7.80;99.90;;;;;;5054107;28;20201;-76
2023/02/09 11:54:13;;;;;;;0.60;0.60;;;7.70;99.90;;;;;;5014790;28;20202;-74
2023/02/09 11:56:58;;;;;;;0.60;0.60;;;7.70;99.90;;;;;;5053617;28;20563;-76
2023/02/09 11:59:47;;;;;;;0.68;0.68;;;7.70;99.90;;;;;;5049991;28;20208;-75
2023/02/09 12:02:50;;;;;;;0.50;0.50;;;7.60;99.90;;;;;;5050265;28;20336;-75
2023/02/09 12:05:29;;;;;;;0.60;0.60;;;7.60;99.90;;;;;;5052741;28;20242;-75
2023/02/09 12:08:29;;;;;;;0.60;0.60;;;7.50;99.90;;;;;;5053506;28;20281;-76
2023/02/09 12:11:28;;;;;;;3.42;1.65;;;7.40;99.90;;;;;;5053619;28;20570;-75
2023/02/09 12:14:31;;;;;;;0.60;0.60;;;7.40;99.90;;;;;;5054885;28;20225;-76
2023/02/09 12:17:12;;;;;;;0.70;0.70;;;7.50;99.90;;;;;;5054736;28;20194;-75
2023/02/09 12:20:29;;;;;;;0.60;0.60;;;7.40;99.90;;;;;;5053221;28;20194;-75
2023/02/09 12:23:00;;;;;;;0.70;0.70;;;7.30;99.90;;;;;;5012408;28;20259;-75
2023/02/09 12:26:08;;;;;;;0.50;0.50;;;7.20;99.90;;;;;;5068015;28;20307;-77
2023/02/09 12:28:38;;;;;;;0.70;0.70;;;6.90;99.90;;;;;;5062148;28;20792;-77
2023/02/09 12:31:18;;;;;;;0.60;0.60;;;6.90;99.90;;;;;;5054383;28;20733;-75
2023/02/09 12:34:14;;;;;;;0.63;0.63;;;6.70;99.90;;;;;;5054550;28;20251;-76
2023/02/09 12:37:21;;;;;;;9.02;1.80;;;6.70;99.90;;;;;;5052983;28;20203;-77
2023/02/09 12:40:22;;;;;;;0.70;0.70;;;6.70;99.90;;;;;;5054344;28;20193;-75
2023/02/09 12:42:59;;;;;;;0.63;0.63;;;6.60;99.90;;;;;;5054306;28;20600;-75
2023/02/09 12:45:38;;;;;;;0.70;0.70;;;6.60;99.90;;;;;;5033105;28;20590;-75
2023/02/09 12:48:10;;;;;;;0.70;0.70;;;6.60;99.90;;;;;;5034274;28;20233;-75
2023/02/09 12:50:42;;;;;;;0.70;0.70;;;6.70;99.90;;;;;;5032440;28;20613;-75
2023/02/09 12:53:26;;;;;;;0.60;0.60;;;6.90;99.90;;;;;;5031959;28;20220;-75
2023/02/09 12:56:11;;;;;;;0.70;0.70;;;7.00;99.90;;;;;;5034599;28;20270;-76
2023/02/09 12:58:53;;;;;;;0.55;0.55;;;6.90;99.90;;;;;;5031944;28;20213;-75
2023/02/09 13:02:03;;;;;;;0.70;0.70;;;6.90;99.90;;;;;;5033838;28;20627;-75
2023/02/09 13:05:13;;;;;;;0.60;0.60;;;6.80;99.90;;;;;;5032325;28;20286;-75
2023/02/09 13:08:20;;;;;;;0.82;0.82;;;6.70;99.90;;;;;;5006963;28;20896;-75
2023/02/09 13:11:17;;;;;;;0.70;0.70;;;6.60;99.90;;;;;;5032557;28;20230;-75
2023/02/09 13:14:01;;;;;;;0.60;0.60;;;6.60;99.90;;;;;;5042728;28;20205;-76
2023/02/09 13:16:52;;;;;;;0.50;0.50;;;6.70;99.90;;;;;;5052265;28;20551;-75
2023/02/09 13:23:29;;;;;;;0.55;0.55;;;6.60;99.90;;;;;;5047818;28;20196;-75
2023/02/09 13:26:29;;;;;;;0.70;0.70;;;6.50;99.90;;;;;;5072307;28;20204;-75
2023/02/09 13:29:09;;;;;;;0.60;0.60;;;6.40;99.90;;;;;;5072902;28;20211;-75
2023/02/09 13:31:56;;;;;;;0.60;0.60;;;6.40;99.90;;;;;;5073260;28;20326;-75
2023/02/09 13:34:53;;;;;;;0.75;0.75;;;6.30;99.90;;;;;;5072229;28;20193;-75
2023/02/09 13:37:34;;;;;;;0.63;0.63;;;6.20;99.90;;;;;;5073392;28;20200;-74
2023/02/09 13:40:35;;;;;;;0.70;0.70;;;6.20;99.90;;;;;;5064620;28;20197;-75
2023/02/09 13:43:10;;;;;;;0.63;0.63;;;6.10;99.90;;;;;;5052065;28;20287;-75
2023/02/09 13:45:58;;;;;;;0.60;0.60;;;6.10;99.90;;;;;;5051529;28;20204;-75
2023/02/09 13:48:31;;;;;;;0.70;0.70;;;6.00;99.90;;;;;;5051607;28;20219;-75
2023/02/09 13:51:17;;;;;;;0.80;0.80;;;6.10;99.90;;;;;;5051716;28;20655;-75
2023/02/09 13:54:36;;;;;;;0.50;0.50;;;6.10;99.90;;;;;;5051673;28;20283;-76
2023/02/09 13:57:22;;;;;;;0.60;0.60;;;6.00;99.90;;;;;;5008695;28;20209;-74
2023/02/09 13:59:53;;;;;;;0.68;0.68;;;6.00;99.90;;;;;;5031913;28;20228;-75
2023/02/09 14:02:34;;;;;;;0.70;0.70;;;6.00;99.90;;;;;;5031327;28;20225;-77
2023/02/09 14:05:07;;;;;;;0.70;0.70;;;5.90;99.90;;;;;;5035616;28;20233;-74
2023/02/09 14:07:41;;;;;;;0.60;0.60;;;5.90;99.90;;;;;;5032689;28;20206;-74
2023/02/09 14:10:16;;;;;;;0.65;0.65;;;5.90;99.90;;;;;;5031512;28;20288;-75